sensor_id;sensor_type;location;lat;lon;timestamp;temperature;humidity
52058;DHT22;38063;53.210;6.504;2022-08-19T00:00:10;15.90;99.90
52058;DHT22;38063;53.210;6.504;2022-08-19T00:02:36;15.90;99.90
52058;DHT22;38063;53.210;6.504;2022-08-19T00:05:03;15.90;99.90
52058;DHT22;38063;53.210;6.504;2022-08-19T00:07:29;15.90;99.90
52058;DHT22;38063;53.210;6.504;2022-08-19T00:09:55;15.80;99.90
52058;DHT22;38063;53.210;6.504;2022-08-19T00:12:21;15.80;99.90
52058;DHT22;38063;53.210;6.504;2022-08-19T00:14:47;15.90;99.90
52058;DHT22;38063;53.210;6.504;2022-08-19T00:17:12;15.80;99.90
52058;DHT22;38063;53.210;6.504;2022-08-19T00:19:38;15.80;99.90
52058;DHT22;38063;53.210;6.504;2022-08-19T00:22:04;15.80;99.90
52058;DHT22;38063;53.210;6.504;2022-08-19T00:24:31;15.70;99.90
52058;DHT22;38063;53.210;6.504;2022-08-19T00:26:57;15.70;99.90
52058;DHT22;38063;53.210;6.504;2022-08-19T00:29:24;15.70;99.90
52058;DHT22;38063;53.210;6.504;2022-08-19T00:31:52;15.70;99.90
52058;DHT22;38063;53.210;6.504;2022-08-19T00:34:21;15.70;99.90
52058;DHT22;38063;53.210;6.504;2022-08-19T00:36:48;15.70;99.90
52058;DHT22;38063;53.210;6.504;2022-08-19T00:39:15;15.70;99.90
52058;DHT22;38063;53.210;6.504;2022-08-19T00:41:42;15.60;99.90
52058;DHT22;38063;53.210;6.504;2022-08-19T00:44:11;15.60;99.90
52058;DHT22;38063;53.210;6.504;2022-08-19T00:46:40;15.60;99.90
52058;DHT22;38063;53.210;6.504;2022-08-19T00:49:16;15.80;99.90
52058;DHT22;38063;53.210;6.504;2022-08-19T00:51:45;15.60;99.90
52058;DHT22;38063;53.210;6.504;2022-08-19T00:54:12;15.50;99.90
52058;DHT22;38063;53.210;6.504;2022-08-19T00:56:38;15.70;99.90
52058;DHT22;38063;53.210;6.504;2022-08-19T00:59:05;15.50;99.90
52058;DHT22;38063;53.210;6.504;2022-08-19T01:01:40;15.50;99.90
52058;DHT22;38063;53.210;6.504;2022-08-19T01:04:06;15.40;99.90
52058;DHT22;38063;53.210;6.504;2022-08-19T01:06:33;15.40;99.90
52058;DHT22;38063;53.210;6.504;2022-08-19T01:08:59;15.40;99.90
52058;DHT22;38063;53.210;6.504;2022-08-19T01:11:27;15.50;99.90
52058;DHT22;38063;53.210;6.504;2022-08-19T01:13:54;15.40;99.90
52058;DHT22;38063;53.210;6.504;2022-08-19T01:16:22;15.40;99.90
52058;DHT22;38063;53.210;6.504;2022-08-19T01:18:49;15.40;99.90
52058;DHT22;38063;53.210;6.504;2022-08-19T01:23:47;15.40;99.90
52058;DHT22;38063;53.210;6.504;2022-08-19T01:26:17;15.50;99.90
52058;DHT22;38063;53.210;6.504;2022-08-19T01:28:44;15.30;99.90
52058;DHT22;38063;53.210;6.504;2022-08-19T01:31:14;15.30;99.90
52058;DHT22;38063;53.210;6.504;2022-08-19T01:33:40;15.30;99.90
52058;DHT22;38063;53.210;6.504;2022-08-19T01:36:14;15.30;99.90
52058;DHT22;38063;53.210;6.504;2022-08-19T01:38:42;15.30;99.90
52058;DHT22;38063;53.210;6.504;2022-08-19T01:41:09;15.20;99.90
52058;DHT22;38063;53.210;6.504;2022-08-19T01:43:35;15.20;99.90
52058;DHT22;38063;53.210;6.504;2022-08-19T01:46:02;15.20;99.90
52058;DHT22;38063;53.210;6.504;2022-08-19T01:48:33;15.20;99.90
52058;DHT22;38063;53.210;6.504;2022-08-19T01:50:59;15.10;99.90
52058;DHT22;38063;53.210;6.504;2022-08-19T01:53:25;15.10;99.90
52058;DHT22;38063;53.210;6.504;2022-08-19T01:55:51;15.10;99.90
52058;DHT22;38063;53.210;6.504;2022-08-19T01:58:22;15.10;99.90
52058;DHT22;38063;53.210;6.504;2022-08-19T02:00:49;15.10;99.90
52058;DHT22;38063;53.210;6.504;2022-08-19T02:03:16;15.10;99.90
52058;DHT22;38063;53.210;6.504;2022-08-19T02:05:42;15.30;99.90
52058;DHT22;38063;53.210;6.504;2022-08-19T02:08:09;15.10;99.90
52058;DHT22;38063;53.210;6.504;2022-08-19T02:10:39;15.10;99.90
52058;DHT22;38063;53.210;6.504;2022-08-19T02:13:05;15.00;99.90
52058;DHT22;38063;53.210;6.504;2022-08-19T02:15:30;15.00;99.90
52058;DHT22;38063;53.210;6.504;2022-08-19T02:17:57;15.00;99.90
52058;DHT22;38063;53.210;6.504;2022-08-19T02:20:23;15.00;99.90
52058;DHT22;38063;53.210;6.504;2022-08-19T02:22:49;15.10;99.90
52058;DHT22;38063;53.210;6.504;2022-08-19T02:25:15;15.00;99.90
52058;DHT22;38063;53.210;6.504;2022-08-19T02:27:41;15.00;99.90
52058;DHT22;38063;53.210;6.504;2022-08-19T02:30:11;15.20;99.90
52058;DHT22;38063;53.210;6.504;2022-08-19T02:32:37;15.00;99.90
52058;DHT22;38063;53.210;6.504;2022-08-19T02:35:04;15.00;99.90
52058;DHT22;38063;53.210;6.504;2022-08-19T02:37:30;15.00;99.90
52058;DHT22;38063;53.210;6.504;2022-08-19T02:40:14;15.60;99.90
52058;DHT22;38063;53.210;6.504;2022-08-19T02:42:40;14.90;99.90
52058;DHT22;38063;53.210;6.504;2022-08-19T02:45:07;14.90;99.90
52058;DHT22;38063;53.210;6.504;2022-08-19T02:47:33;14.90;99.90
52058;DHT22;38063;53.210;6.504;2022-08-19T02:50:01;14.90;99.90
52058;DHT22;38063;53.210;6.504;2022-08-19T02:52:27;14.90;99.90
52058;DHT22;38063;53.210;6.504;2022-08-19T02:54:53;15.00;99.90
52058;DHT22;38063;53.210;6.504;2022-08-19T02:57:23;14.80;99.90
52058;DHT22;38063;53.210;6.504;2022-08-19T02:59:49;15.00;99.90
52058;DHT22;38063;53.210;6.504;2022-08-19T03:02:15;14.90;99.90
52058;DHT22;38063;53.210;6.504;2022-08-19T03:04:41;14.80;99.90
52058;DHT22;38063;53.210;6.504;2022-08-19T03:07:07;14.80;99.90
52058;DHT22;38063;53.210;6.504;2022-08-19T03:09:33;14.90;99.90
52058;DHT22;38063;53.210;6.504;2022-08-19T03:12:03;14.80;99.90
52058;DHT22;38063;53.210;6.504;2022-08-19T03:14:32;14.80;99.90
52058;DHT22;38063;53.210;6.504;2022-08-19T03:16:59;14.80;99.90
52058;DHT22;38063;53.210;6.504;2022-08-19T03:19:25;14.70;99.90
52058;DHT22;38063;53.210;6.504;2022-08-19T03:21:52;14.60;99.90
52058;DHT22;38063;53.210;6.504;2022-08-19T03:24:19;14.70;99.90
52058;DHT22;38063;53.210;6.504;2022-08-19T03:26:46;14.70;99.90
52058;DHT22;38063;53.210;6.504;2022-08-19T03:29:14;14.60;99.90
52058;DHT22;38063;53.210;6.504;2022-08-19T03:31:41;14.70;99.90
52058;DHT22;38063;53.210;6.504;2022-08-19T03:34:08;14.60;99.90
52058;DHT22;38063;53.210;6.504;2022-08-19T03:36:35;14.70;99.90
52058;DHT22;38063;53.210;6.504;2022-08-19T03:39:01;14.60;99.90
52058;DHT22;38063;53.210;6.504;2022-08-19T03:41:35;14.70;99.90
52058;DHT22;38063;53.210;6.504;2022-08-19T03:44:02;14.60;99.90
52058;DHT22;38063;53.210;6.504;2022-08-19T03:46:31;14.60;99.90
52058;DHT22;38063;53.210;6.504;2022-08-19T03:48:59;14.50;99.90
52058;DHT22;38063;53.210;6.504;2022-08-19T03:51:36;14.50;99.90
52058;DHT22;38063;53.210;6.504;2022-08-19T03:54:06;14.50;99.90
52058;DHT22;38063;53.210;6.504;2022-08-19T03:56:35;14.50;99.90
52058;DHT22;38063;53.210;6.504;2022-08-19T03:59:02;14.50;99.90
52058;DHT22;38063;53.210;6.504;2022-08-19T04:01:29;14.50;99.90
52058;DHT22;38063;53.210;6.504;2022-08-19T04:03:59;14.50;99.90
52058;DHT22;38063;53.210;6.504;2022-08-19T04:06:30;14.50;99.90
52058;DHT22;38063;53.210;6.504;2022-08-19T04:08:57;14.50;99.90
52058;DHT22;38063;53.210;6.504;2022-08-19T04:11:29;14.50;99.90
52058;DHT22;38063;53.210;6.504;2022-08-19T04:13:56;14.50;99.90
52058;DHT22;38063;53.210;6.504;2022-08-19T04:16:24;14.50;99.90
52058;DHT22;38063;53.210;6.504;2022-08-19T04:18:50;14.50;99.90
52058;DHT22;38063;53.210;6.504;2022-08-19T04:21:20;14.40;99.90
52058;DHT22;38063;53.210;6.504;2022-08-19T04:23:46;14.50;99.90
52058;DHT22;38063;53.210;6.504;2022-08-19T04:26:46;14.50;99.90
52058;DHT22;38063;53.210;6.504;2022-08-19T04:29:08;14.50;99.90
52058;DHT22;38063;53.210;6.504;2022-08-19T04:31:35;14.50;99.90
52058;DHT22;38063;53.210;6.504;2022-08-19T04:34:02;14.40;99.90
52058;DHT22;38063;53.210;6.504;2022-08-19T04:36:31;14.40;99.90
52058;DHT22;38063;53.210;6.504;2022-08-19T04:38:59;14.40;99.90
52058;DHT22;38063;53.210;6.504;2022-08-19T04:41:26;14.50;99.90
52058;DHT22;38063;53.210;6.504;2022-08-19T04:44:11;14.50;99.90
52058;DHT22;38063;53.210;6.504;2022-08-19T04:46:37;14.40;99.90
52058;DHT22;38063;53.210;6.504;2022-08-19T04:49:04;14.40;99.90
52058;DHT22;38063;53.210;6.504;2022-08-19T04:51:31;14.40;99.90
52058;DHT22;38063;53.210;6.504;2022-08-19T04:53:58;14.40;99.90
52058;DHT22;38063;53.210;6.504;2022-08-19T04:56:26;14.40;99.90
52058;DHT22;38063;53.210;6.504;2022-08-19T04:58:53;14.40;99.90
52058;DHT22;38063;53.210;6.504;2022-08-19T05:01:28;14.50;99.90
52058;DHT22;38063;53.210;6.504;2022-08-19T05:03:55;14.40;99.90
52058;DHT22;38063;53.210;6.504;2022-08-19T05:06:23;14.40;99.90
52058;DHT22;38063;53.210;6.504;2022-08-19T05:08:49;14.80;99.90
52058;DHT22;38063;53.210;6.504;2022-08-19T05:11:24;14.50;99.90
52058;DHT22;38063;53.210;6.504;2022-08-19T05:13:51;14.50;99.90
52058;DHT22;38063;53.210;6.504;2022-08-19T05:16:19;14.50;99.90
52058;DHT22;38063;53.210;6.504;2022-08-19T05:18:45;14.60;99.90
52058;DHT22;38063;53.210;6.504;2022-08-19T05:21:30;14.60;99.90
52058;DHT22;38063;53.210;6.504;2022-08-19T05:24:15;14.70;99.90
52058;DHT22;38063;53.210;6.504;2022-08-19T05:26:44;14.60;99.90
52058;DHT22;38063;53.210;6.504;2022-08-19T05:29:15;14.70;99.90
52058;DHT22;38063;53.210;6.504;2022-08-19T05:31:42;14.70;99.90
52058;DHT22;38063;53.210;6.504;2022-08-19T05:34:08;14.80;99.90
52058;DHT22;38063;53.210;6.504;2022-08-19T05:36:40;14.70;99.90
52058;DHT22;38063;53.210;6.504;2022-08-19T05:39:07;14.80;99.90
52058;DHT22;38063;53.210;6.504;2022-08-19T05:41:34;14.80;99.90
52058;DHT22;38063;53.210;6.504;2022-08-19T05:44:04;14.80;99.90
52058;DHT22;38063;53.210;6.504;2022-08-19T05:46:32;14.90;99.90
52058;DHT22;38063;53.210;6.504;2022-08-19T05:48:58;14.90;99.90
52058;DHT22;38063;53.210;6.504;2022-08-19T05:51:24;14.90;99.90
52058;DHT22;38063;53.210;6.504;2022-08-19T05:53:50;14.90;99.90
52058;DHT22;38063;53.210;6.504;2022-08-19T05:56:17;15.00;99.90
52058;DHT22;38063;53.210;6.504;2022-08-19T05:58:44;15.10;99.90
52058;DHT22;38063;53.210;6.504;2022-08-19T06:01:18;15.10;99.90
52058;DHT22;38063;53.210;6.504;2022-08-19T06:03:45;15.10;99.90
52058;DHT22;38063;53.210;6.504;2022-08-19T06:06:12;15.20;99.90
52058;DHT22;38063;53.210;6.504;2022-08-19T06:08:39;15.30;99.90
52058;DHT22;38063;53.210;6.504;2022-08-19T06:13:44;15.30;99.90
52058;DHT22;38063;53.210;6.504;2022-08-19T06:16:12;15.50;99.90
52058;DHT22;38063;53.210;6.504;2022-08-19T06:18:38;15.50;99.90
52058;DHT22;38063;53.210;6.504;2022-08-19T06:21:04;15.70;99.90
52058;DHT22;38063;53.210;6.504;2022-08-19T06:23:30;15.70;99.90
52058;DHT22;38063;53.210;6.504;2022-08-19T06:25:56;15.90;99.90
52058;DHT22;38063;53.210;6.504;2022-08-19T06:28:21;16.10;99.90
52058;DHT22;38063;53.210;6.504;2022-08-19T06:30:49;16.40;99.90
52058;DHT22;38063;53.210;6.504;2022-08-19T06:33:15;16.60;99.90
52058;DHT22;38063;53.210;6.504;2022-08-19T06:35:41;16.90;99.90
52058;DHT22;38063;53.210;6.504;2022-08-19T06:38:07;17.10;99.90
52058;DHT22;38063;53.210;6.504;2022-08-19T06:40:33;17.50;99.90
52058;DHT22;38063;53.210;6.504;2022-08-19T06:43:00;17.60;99.90
52058;DHT22;38063;53.210;6.504;2022-08-19T06:45:27;17.80;99.90
52058;DHT22;38063;53.210;6.504;2022-08-19T06:47:53;18.00;99.90
52058;DHT22;38063;53.210;6.504;2022-08-19T06:50:24;18.30;99.90
52058;DHT22;38063;53.210;6.504;2022-08-19T06:52:50;18.50;99.90
52058;DHT22;38063;53.210;6.504;2022-08-19T06:55:16;18.70;99.90
52058;DHT22;38063;53.210;6.504;2022-08-19T06:57:42;18.90;99.90
52058;DHT22;38063;53.210;6.504;2022-08-19T07:00:08;19.20;99.90
52058;DHT22;38063;53.210;6.504;2022-08-19T07:02:43;19.30;99.90
52058;DHT22;38063;53.210;6.504;2022-08-19T07:05:09;19.50;99.90
52058;DHT22;38063;53.210;6.504;2022-08-19T07:07:35;19.70;99.90
52058;DHT22;38063;53.210;6.504;2022-08-19T07:10:01;19.90;99.90
52058;DHT22;38063;53.210;6.504;2022-08-19T07:12:29;20.10;99.90
52058;DHT22;38063;53.210;6.504;2022-08-19T07:14:58;20.30;99.90
52058;DHT22;38063;53.210;6.504;2022-08-19T07:17:24;20.40;99.90
52058;DHT22;38063;53.210;6.504;2022-08-19T07:19:50;20.50;99.90
52058;DHT22;38063;53.210;6.504;2022-08-19T07:22:15;20.70;99.90
52058;DHT22;38063;53.210;6.504;2022-08-19T07:24:42;20.80;99.90
52058;DHT22;38063;53.210;6.504;2022-08-19T07:27:07;21.00;99.90
52058;DHT22;38063;53.210;6.504;2022-08-19T07:29:36;21.10;99.90
52058;DHT22;38063;53.210;6.504;2022-08-19T07:32:03;21.20;99.90
52058;DHT22;38063;53.210;6.504;2022-08-19T07:34:30;21.30;99.90
52058;DHT22;38063;53.210;6.504;2022-08-19T07:36:56;21.40;99.90
52058;DHT22;38063;53.210;6.504;2022-08-19T07:39:27;21.60;99.90
52058;DHT22;38063;53.210;6.504;2022-08-19T07:41:55;21.80;99.90
52058;DHT22;38063;53.210;6.504;2022-08-19T07:44:21;22.00;99.90
52058;DHT22;38063;53.210;6.504;2022-08-19T07:46:50;22.10;99.90
52058;DHT22;38063;53.210;6.504;2022-08-19T07:49:18;22.30;99.90
52058;DHT22;38063;53.210;6.504;2022-08-19T07:51:47;22.40;99.90
52058;DHT22;38063;53.210;6.504;2022-08-19T07:54:13;22.60;99.90
52058;DHT22;38063;53.210;6.504;2022-08-19T07:56:38;22.70;99.90
52058;DHT22;38063;53.210;6.504;2022-08-19T07:59:04;22.80;99.90
52058;DHT22;38063;53.210;6.504;2022-08-19T08:01:31;22.80;99.90
52058;DHT22;38063;53.210;6.504;2022-08-19T08:03:57;23.00;99.90
52058;DHT22;38063;53.210;6.504;2022-08-19T08:06:42;23.20;99.90
52058;DHT22;38063;53.210;6.504;2022-08-19T08:09:32;23.30;99.90
52058;DHT22;38063;53.210;6.504;2022-08-19T08:12:06;23.50;99.90
52058;DHT22;38063;53.210;6.504;2022-08-19T08:14:37;23.60;99.90
52058;DHT22;38063;53.210;6.504;2022-08-19T08:17:05;23.70;99.90
52058;DHT22;38063;53.210;6.504;2022-08-19T08:19:31;23.70;99.90
52058;DHT22;38063;53.210;6.504;2022-08-19T08:21:59;23.80;99.90
52058;DHT22;38063;53.210;6.504;2022-08-19T08:24:27;23.90;99.90
52058;DHT22;38063;53.210;6.504;2022-08-19T08:26:53;24.00;99.90
52058;DHT22;38063;53.210;6.504;2022-08-19T08:29:19;24.20;99.90
52058;DHT22;38063;53.210;6.504;2022-08-19T08:31:46;24.30;99.90
52058;DHT22;38063;53.210;6.504;2022-08-19T08:34:13;24.50;99.90
52058;DHT22;38063;53.210;6.504;2022-08-19T08:36:41;24.60;99.90
52058;DHT22;38063;53.210;6.504;2022-08-19T08:39:16;24.80;99.90
52058;DHT22;38063;53.210;6.504;2022-08-19T08:44:42;25.10;99.90
52058;DHT22;38063;53.210;6.504;2022-08-19T08:47:14;25.20;99.90
52058;DHT22;38063;53.210;6.504;2022-08-19T08:49:49;25.30;99.90
52058;DHT22;38063;53.210;6.504;2022-08-19T08:52:36;25.40;99.90
52058;DHT22;38063;53.210;6.504;2022-08-19T08:55:10;25.60;99.90
52058;DHT22;38063;53.210;6.504;2022-08-19T09:00:31;25.70;99.90
52058;DHT22;38063;53.210;6.504;2022-08-19T09:02:58;25.70;99.90
52058;DHT22;38063;53.210;6.504;2022-08-19T09:06:04;25.90;99.90
52058;DHT22;38063;53.210;6.504;2022-08-19T09:09:32;26.00;99.90
52058;DHT22;38063;53.210;6.504;2022-08-19T09:16:58;26.50;99.90
52058;DHT22;38063;53.210;6.504;2022-08-19T09:19:25;26.50;99.90
52058;DHT22;38063;53.210;6.504;2022-08-19T09:21:50;26.60;99.90
52058;DHT22;38063;53.210;6.504;2022-08-19T09:24:16;26.60;99.90
52058;DHT22;38063;53.210;6.504;2022-08-19T09:26:42;26.70;99.90
52058;DHT22;38063;53.210;6.504;2022-08-19T09:29:09;27.00;99.90
52058;DHT22;38063;53.210;6.504;2022-08-19T09:31:35;27.20;99.90
52058;DHT22;38063;53.210;6.504;2022-08-19T09:34:01;27.30;99.90
52058;DHT22;38063;53.210;6.504;2022-08-19T09:36:30;27.40;99.90
52058;DHT22;38063;53.210;6.504;2022-08-19T09:38:58;27.60;99.90
52058;DHT22;38063;53.210;6.504;2022-08-19T09:41:26;27.70;99.90
52058;DHT22;38063;53.210;6.504;2022-08-19T09:43:53;27.90;99.90
52058;DHT22;38063;53.210;6.504;2022-08-19T09:46:22;28.00;99.90
52058;DHT22;38063;53.210;6.504;2022-08-19T09:48:49;28.10;99.90
52058;DHT22;38063;53.210;6.504;2022-08-19T09:51:24;28.10;99.90
52058;DHT22;38063;53.210;6.504;2022-08-19T09:53:52;28.20;99.90
52058;DHT22;38063;53.210;6.504;2022-08-19T09:56:20;28.20;99.90
52058;DHT22;38063;53.210;6.504;2022-08-19T09:58:47;28.30;99.90
52058;DHT22;38063;53.210;6.504;2022-08-19T10:01:18;28.30;99.90
52058;DHT22;38063;53.210;6.504;2022-08-19T10:03:47;28.30;99.90
52058;DHT22;38063;53.210;6.504;2022-08-19T10:06:13;28.30;99.90
52058;DHT22;38063;53.210;6.504;2022-08-19T10:08:39;28.30;99.90
52058;DHT22;38063;53.210;6.504;2022-08-19T10:11:05;28.40;99.90
52058;DHT22;38063;53.210;6.504;2022-08-19T10:13:32;28.40;99.90
52058;DHT22;38063;53.210;6.504;2022-08-19T10:16:08;28.50;99.80
52058;DHT22;38063;53.210;6.504;2022-08-19T10:18:34;28.60;99.60
52058;DHT22;38063;53.210;6.504;2022-08-19T10:21:09;28.70;99.40
52058;DHT22;38063;53.210;6.504;2022-08-19T10:23:37;28.70;98.10
52058;DHT22;38063;53.210;6.504;2022-08-19T10:26:05;28.50;98.50
52058;DHT22;38063;53.210;6.504;2022-08-19T10:28:35;28.60;98.50
52058;DHT22;38063;53.210;6.504;2022-08-19T10:31:12;28.60;98.50
52058;DHT22;38063;53.210;6.504;2022-08-19T10:33:38;28.60;98.10
52058;DHT22;38063;53.210;6.504;2022-08-19T10:36:10;28.60;97.90
52058;DHT22;38063;53.210;6.504;2022-08-19T10:38:37;28.70;98.20
52058;DHT22;38063;53.210;6.504;2022-08-19T10:41:11;28.80;98.10
52058;DHT22;38063;53.210;6.504;2022-08-19T10:43:39;29.00;97.40
52058;DHT22;38063;53.210;6.504;2022-08-19T10:46:08;29.00;97.70
52058;DHT22;38063;53.210;6.504;2022-08-19T10:48:35;29.20;97.40
52058;DHT22;38063;53.210;6.504;2022-08-19T10:51:01;29.40;97.00
52058;DHT22;38063;53.210;6.504;2022-08-19T10:53:46;29.40;96.60
52058;DHT22;38063;53.210;6.504;2022-08-19T10:56:12;29.30;95.70
52058;DHT22;38063;53.210;6.504;2022-08-19T10:58:56;29.20;96.00
52058;DHT22;38063;53.210;6.504;2022-08-19T11:01:23;29.20;96.90
52058;DHT22;38063;53.210;6.504;2022-08-19T11:03:49;29.20;96.40
52058;DHT22;38063;53.210;6.504;2022-08-19T11:06:15;29.30;96.70
52058;DHT22;38063;53.210;6.504;2022-08-19T11:08:41;29.50;96.70
52058;DHT22;38063;53.210;6.504;2022-08-19T11:11:07;29.60;95.90
52058;DHT22;38063;53.210;6.504;2022-08-19T11:13:36;29.60;96.20
52058;DHT22;38063;53.210;6.504;2022-08-19T11:16:13;29.60;96.30
52058;DHT22;38063;53.210;6.504;2022-08-19T11:18:49;29.90;96.30
52058;DHT22;38063;53.210;6.504;2022-08-19T11:23:47;29.80;95.50
52058;DHT22;38063;53.210;6.504;2022-08-19T11:26:13;29.40;95.40
52058;DHT22;38063;53.210;6.504;2022-08-19T11:28:40;29.10;95.80
52058;DHT22;38063;53.210;6.504;2022-08-19T11:31:15;28.90;95.60
52058;DHT22;38063;53.210;6.504;2022-08-19T11:33:40;28.90;95.10
52058;DHT22;38063;53.210;6.504;2022-08-19T11:36:07;28.80;95.60
52058;DHT22;38063;53.210;6.504;2022-08-19T11:38:35;28.60;95.40
52058;DHT22;38063;53.210;6.504;2022-08-19T11:41:04;28.40;95.40
52058;DHT22;38063;53.210;6.504;2022-08-19T11:43:31;28.20;95.70
52058;DHT22;38063;53.210;6.504;2022-08-19T11:45:57;28.10;96.00
52058;DHT22;38063;53.210;6.504;2022-08-19T11:48:24;28.00;96.10
52058;DHT22;38063;53.210;6.504;2022-08-19T11:50:52;27.80;96.70
52058;DHT22;38063;53.210;6.504;2022-08-19T11:53:19;27.80;97.10
52058;DHT22;38063;53.210;6.504;2022-08-19T11:55:46;27.80;97.20
52058;DHT22;38063;53.210;6.504;2022-08-19T11:58:13;27.70;97.70
52058;DHT22;38063;53.210;6.504;2022-08-19T12:00:40;27.70;97.00
52058;DHT22;38063;53.210;6.504;2022-08-19T12:03:06;27.70;96.30
52058;DHT22;38063;53.210;6.504;2022-08-19T12:05:32;27.80;96.20
52058;DHT22;38063;53.210;6.504;2022-08-19T12:07:57;27.80;96.10
52058;DHT22;38063;53.210;6.504;2022-08-19T12:10:24;27.70;95.70
52058;DHT22;38063;53.210;6.504;2022-08-19T12:12:50;27.60;95.40
52058;DHT22;38063;53.210;6.504;2022-08-19T12:15:15;27.50;95.30
52058;DHT22;38063;53.210;6.504;2022-08-19T12:17:42;27.40;95.70
52058;DHT22;38063;53.210;6.504;2022-08-19T12:20:09;27.40;95.70
52058;DHT22;38063;53.210;6.504;2022-08-19T12:22:37;27.30;96.30
52058;DHT22;38063;53.210;6.504;2022-08-19T12:25:04;27.40;96.20
52058;DHT22;38063;53.210;6.504;2022-08-19T12:27:30;27.30;96.00
52058;DHT22;38063;53.210;6.504;2022-08-19T12:29:56;27.40;96.50
52058;DHT22;38063;53.210;6.504;2022-08-19T12:32:22;27.30;96.60
52058;DHT22;38063;53.210;6.504;2022-08-19T12:34:50;27.40;96.80
52058;DHT22;38063;53.210;6.504;2022-08-19T12:37:15;27.40;96.60
52058;DHT22;38063;53.210;6.504;2022-08-19T12:39:42;27.50;96.20
52058;DHT22;38063;53.210;6.504;2022-08-19T12:42:12;27.50;96.00
52058;DHT22;38063;53.210;6.504;2022-08-19T12:44:40;27.50;95.90
52058;DHT22;38063;53.210;6.504;2022-08-19T12:47:07;27.50;95.80
52058;DHT22;38063;53.210;6.504;2022-08-19T12:49:34;27.50;96.10
52058;DHT22;38063;53.210;6.504;2022-08-19T12:52:02;27.50;96.00
52058;DHT22;38063;53.210;6.504;2022-08-19T12:54:29;27.40;96.20
52058;DHT22;38063;53.210;6.504;2022-08-19T12:56:56;27.30;96.10
52058;DHT22;38063;53.210;6.504;2022-08-19T12:59:22;27.20;96.60
52058;DHT22;38063;53.210;6.504;2022-08-19T13:01:48;27.00;96.90
52058;DHT22;38063;53.210;6.504;2022-08-19T13:04:14;27.00;97.40
52058;DHT22;38063;53.210;6.504;2022-08-19T13:06:41;26.90;97.50
52058;DHT22;38063;53.210;6.504;2022-08-19T13:09:08;26.80;97.60
52058;DHT22;38063;53.210;6.504;2022-08-19T13:11:34;26.70;97.80
52058;DHT22;38063;53.210;6.504;2022-08-19T13:14:01;26.50;98.10
52058;DHT22;38063;53.210;6.504;2022-08-19T13:16:28;26.70;98.70
52058;DHT22;38063;53.210;6.504;2022-08-19T13:18:54;26.80;98.60
52058;DHT22;38063;53.210;6.504;2022-08-19T13:21:24;27.00;98.70
52058;DHT22;38063;53.210;6.504;2022-08-19T13:23:51;27.20;99.00
52058;DHT22;38063;53.210;6.504;2022-08-19T13:26:17;27.30;99.00
52058;DHT22;38063;53.210;6.504;2022-08-19T13:28:44;27.10;99.30
52058;DHT22;38063;53.210;6.504;2022-08-19T13:31:32;27.00;99.50
52058;DHT22;38063;53.210;6.504;2022-08-19T13:34:18;26.80;99.50
52058;DHT22;38063;53.210;6.504;2022-08-19T13:36:45;26.50;99.90
52058;DHT22;38063;53.210;6.504;2022-08-19T13:39:11;26.50;99.90
52058;DHT22;38063;53.210;6.504;2022-08-19T13:41:37;26.30;99.90
52058;DHT22;38063;53.210;6.504;2022-08-19T13:44:08;26.10;99.90
52058;DHT22;38063;53.210;6.504;2022-08-19T13:46:34;25.80;99.90
52058;DHT22;38063;53.210;6.504;2022-08-19T13:48:59;25.80;99.90
52058;DHT22;38063;53.210;6.504;2022-08-19T13:51:25;25.70;99.90
52058;DHT22;38063;53.210;6.504;2022-08-19T13:53:51;25.60;99.90
52058;DHT22;38063;53.210;6.504;2022-08-19T13:56:18;25.50;99.90
52058;DHT22;38063;53.210;6.504;2022-08-19T13:58:45;25.40;99.90
52058;DHT22;38063;53.210;6.504;2022-08-19T14:01:11;25.30;99.90
52058;DHT22;38063;53.210;6.504;2022-08-19T14:03:37;25.30;99.90
52058;DHT22;38063;53.210;6.504;2022-08-19T14:06:03;25.20;99.90
52058;DHT22;38063;53.210;6.504;2022-08-19T14:08:29;25.20;99.90
52058;DHT22;38063;53.210;6.504;2022-08-19T14:10:58;25.10;99.90
52058;DHT22;38063;53.210;6.504;2022-08-19T14:13:24;25.10;99.90
52058;DHT22;38063;53.210;6.504;2022-08-19T14:15:50;25.10;99.90
52058;DHT22;38063;53.210;6.504;2022-08-19T14:18:17;25.00;99.90
52058;DHT22;38063;53.210;6.504;2022-08-19T14:20:44;25.00;99.90
52058;DHT22;38063;53.210;6.504;2022-08-19T14:23:10;24.90;99.90
52058;DHT22;38063;53.210;6.504;2022-08-19T14:25:37;24.90;99.90
52058;DHT22;38063;53.210;6.504;2022-08-19T14:28:03;24.90;99.90
52058;DHT22;38063;53.210;6.504;2022-08-19T14:30:34;24.90;99.90
52058;DHT22;38063;53.210;6.504;2022-08-19T14:33:01;24.90;99.90
52058;DHT22;38063;53.210;6.504;2022-08-19T14:35:28;25.00;99.90
52058;DHT22;38063;53.210;6.504;2022-08-19T14:37:55;25.10;99.90
52058;DHT22;38063;53.210;6.504;2022-08-19T14:40:23;25.10;99.90
52058;DHT22;38063;53.210;6.504;2022-08-19T14:43:03;25.10;99.90
52058;DHT22;38063;53.210;6.504;2022-08-19T14:45:36;25.10;99.90
52058;DHT22;38063;53.210;6.504;2022-08-19T14:48:02;25.10;99.90
52058;DHT22;38063;53.210;6.504;2022-08-19T14:50:28;25.10;99.90
52058;DHT22;38063;53.210;6.504;2022-08-19T14:53:04;25.10;99.90
52058;DHT22;38063;53.210;6.504;2022-08-19T14:55:31;25.10;99.90
52058;DHT22;38063;53.210;6.504;2022-08-19T14:57:57;25.10;99.90
52058;DHT22;38063;53.210;6.504;2022-08-19T15:00:24;25.10;99.90
52058;DHT22;38063;53.210;6.504;2022-08-19T15:02:50;25.20;99.90
52058;DHT22;38063;53.210;6.504;2022-08-19T15:05:16;25.30;99.90
52058;DHT22;38063;53.210;6.504;2022-08-19T15:07:42;25.50;99.90
52058;DHT22;38063;53.210;6.504;2022-08-19T15:10:10;25.70;99.90
52058;DHT22;38063;53.210;6.504;2022-08-19T15:12:37;25.80;99.90
52058;DHT22;38063;53.210;6.504;2022-08-19T15:15:09;25.90;99.90
52058;DHT22;38063;53.210;6.504;2022-08-19T15:17:38;26.20;99.90
52058;DHT22;38063;53.210;6.504;2022-08-19T15:20:06;26.30;99.90
52058;DHT22;38063;53.210;6.504;2022-08-19T15:22:33;26.50;99.90
52058;DHT22;38063;53.210;6.504;2022-08-19T15:24:59;26.70;99.90
52058;DHT22;38063;53.210;6.504;2022-08-19T15:27:26;26.60;99.90
52058;DHT22;38063;53.210;6.504;2022-08-19T15:29:52;26.50;99.90
52058;DHT22;38063;53.210;6.504;2022-08-19T15:32:17;26.40;99.90
52058;DHT22;38063;53.210;6.504;2022-08-19T15:34:44;26.20;99.90
52058;DHT22;38063;53.210;6.504;2022-08-19T15:37:14;26.10;99.90
52058;DHT22;38063;53.210;6.504;2022-08-19T15:39:40;25.90;99.90
52058;DHT22;38063;53.210;6.504;2022-08-19T15:42:05;25.80;99.90
52058;DHT22;38063;53.210;6.504;2022-08-19T15:44:32;25.80;99.90
52058;DHT22;38063;53.210;6.504;2022-08-19T15:46:58;25.80;99.90
52058;DHT22;38063;53.210;6.504;2022-08-19T15:49:24;25.70;99.90
52058;DHT22;38063;53.210;6.504;2022-08-19T15:51:50;25.70;99.90
52058;DHT22;38063;53.210;6.504;2022-08-19T15:54:19;25.70;99.90